Terminal Aerodrome Forecast
Issued by NWS Nashville, TN

Home | Current Version | Previous Version | Text Only | Print | Product List | Glossary On
Versions: 1 2 3 4 5 6 7 8 9 10 11 12 13 14 15 16 17
000
FTUS44 KOHX 231124
TAFBNA
TAF
KBNA 231124Z 2312/2412 18005KT P6SM SCT120 BKN250
     FM231800 19004KT P6SM VCTS BKN045CB
     FM240200 14003KT P6SM SCT120
     FM240800 16002KT 4SM BR SCT250=

USA.gov is the U.S. government's official web portal to all federal, state and local government web resources and services.